sensor_id;sensor_type;location;lat;lon;timestamp;P1;durP1;ratioP1;P2;durP2;ratioP2
64060;SDS011;60147;55.036;73.242;2023-02-17T00:00:27;42.80;;;20.05;;
64060;SDS011;60147;55.036;73.242;2023-02-17T00:02:58;41.03;;;15.13;;
64060;SDS011;60147;55.036;73.242;2023-02-17T00:05:24;40.55;;;18.35;;
64060;SDS011;60147;55.036;73.242;2023-02-17T00:07:50;47.30;;;18.52;;
64060;SDS011;60147;55.036;73.242;2023-02-17T00:10:16;45.50;;;19.70;;
64060;SDS011;60147;55.036;73.242;2023-02-17T00:12:42;38.05;;;18.05;;
64060;SDS011;60147;55.036;73.242;2023-02-17T00:15:08;51.75;;;20.35;;
64060;SDS011;60147;55.036;73.242;2023-02-17T00:17:39;44.67;;;20.73;;
64060;SDS011;60147;55.036;73.242;2023-02-17T00:20:05;38.28;;;18.52;;
64060;SDS011;60147;55.036;73.242;2023-02-17T00:22:31;45.35;;;17.55;;
64060;SDS011;60147;55.036;73.242;2023-02-17T00:24:57;39.53;;;18.45;;
64060;SDS011;60147;55.036;73.242;2023-02-17T00:27:23;47.33;;;17.02;;
64060;SDS011;60147;55.036;73.242;2023-02-17T00:29:49;40.88;;;18.65;;
64060;SDS011;60147;55.036;73.242;2023-02-17T00:32:16;37.85;;;18.33;;
64060;SDS011;60147;55.036;73.242;2023-02-17T00:34:42;44.05;;;20.15;;
64060;SDS011;60147;55.036;73.242;2023-02-17T00:37:08;42.45;;;21.75;;
64060;SDS011;60147;55.036;73.242;2023-02-17T00:39:33;43.30;;;22.52;;
64060;SDS011;60147;55.036;73.242;2023-02-17T00:42:10;31.08;;;16.05;;
64060;SDS011;60147;55.036;73.242;2023-02-17T00:44:36;42.17;;;18.83;;
64060;SDS011;60147;55.036;73.242;2023-02-17T00:47:01;62.10;;;22.20;;
64060;SDS011;60147;55.036;73.242;2023-02-17T00:49:27;51.42;;;23.58;;
64060;SDS011;60147;55.036;73.242;2023-02-17T00:51:59;78.35;;;27.65;;
64060;SDS011;60147;55.036;73.242;2023-02-17T00:54:26;51.45;;;23.02;;
64060;SDS011;60147;55.036;73.242;2023-02-17T00:56:58;51.05;;;26.50;;
64060;SDS011;60147;55.036;73.242;2023-02-17T00:59:34;43.70;;;21.52;;
64060;SDS011;60147;55.036;73.242;2023-02-17T01:01:59;47.05;;;20.60;;
64060;SDS011;60147;55.036;73.242;2023-02-17T01:04:25;42.90;;;21.70;;
64060;SDS011;60147;55.036;73.242;2023-02-17T01:07:01;51.95;;;23.42;;
64060;SDS011;60147;55.036;73.242;2023-02-17T01:09:27;62.33;;;28.40;;
64060;SDS011;60147;55.036;73.242;2023-02-17T01:11:53;49.97;;;21.98;;
64060;SDS011;60147;55.036;73.242;2023-02-17T01:14:25;65.40;;;26.48;;
64060;SDS011;60147;55.036;73.242;2023-02-17T01:16:54;58.78;;;28.73;;
64060;SDS011;60147;55.036;73.242;2023-02-17T01:19:30;59.08;;;25.27;;
64060;SDS011;60147;55.036;73.242;2023-02-17T01:22:06;52.88;;;22.85;;
64060;SDS011;60147;55.036;73.242;2023-02-17T01:24:41;48.90;;;24.13;;
64060;SDS011;60147;55.036;73.242;2023-02-17T01:27:17;49.03;;;20.88;;
64060;SDS011;60147;55.036;73.242;2023-02-17T01:29:44;51.25;;;20.70;;
64060;SDS011;60147;55.036;73.242;2023-02-17T01:32:20;47.75;;;22.92;;
64060;SDS011;60147;55.036;73.242;2023-02-17T01:34:46;46.17;;;19.98;;
64060;SDS011;60147;55.036;73.242;2023-02-17T01:37:13;44.20;;;21.98;;
64060;SDS011;60147;55.036;73.242;2023-02-17T01:39:44;45.05;;;18.95;;
64060;SDS011;60147;55.036;73.242;2023-02-17T01:42:15;41.35;;;20.17;;
64060;SDS011;60147;55.036;73.242;2023-02-17T01:47:25;43.75;;;22.63;;
64060;SDS011;60147;55.036;73.242;2023-02-17T01:49:56;67.35;;;28.48;;
64060;SDS011;60147;55.036;73.242;2023-02-17T01:52:22;74.65;;;29.63;;
64060;SDS011;60147;55.036;73.242;2023-02-17T01:54:54;60.15;;;26.33;;
64060;SDS011;60147;55.036;73.242;2023-02-17T01:57:22;64.43;;;29.23;;
64060;SDS011;60147;55.036;73.242;2023-02-17T01:59:59;72.47;;;29.25;;
64060;SDS011;60147;55.036;73.242;2023-02-17T02:02:26;90.88;;;33.53;;
64060;SDS011;60147;55.036;73.242;2023-02-17T02:04:54;73.95;;;25.95;;
64060;SDS011;60147;55.036;73.242;2023-02-17T02:07:24;70.72;;;24.30;;
64060;SDS011;60147;55.036;73.242;2023-02-17T02:09:52;78.97;;;27.17;;
64060;SDS011;60147;55.036;73.242;2023-02-17T02:12:19;63.53;;;26.60;;
64060;SDS011;60147;55.036;73.242;2023-02-17T02:14:45;67.97;;;23.05;;
64060;SDS011;60147;55.036;73.242;2023-02-17T02:17:26;63.50;;;29.40;;
64060;SDS011;60147;55.036;73.242;2023-02-17T02:25:27;105.40;;;40.90;;
64060;SDS011;60147;55.036;73.242;2023-02-17T02:28:12;129.45;;;43.78;;
64060;SDS011;60147;55.036;73.242;2023-02-17T02:30:48;124.25;;;41.55;;
64060;SDS011;60147;55.036;73.242;2023-02-17T02:33:23;105.65;;;37.55;;
64060;SDS011;60147;55.036;73.242;2023-02-17T02:38:28;96.35;;;37.92;;
64060;SDS011;60147;55.036;73.242;2023-02-17T02:40:57;73.05;;;35.15;;
64060;SDS011;60147;55.036;73.242;2023-02-17T02:43:31;85.05;;;36.28;;
64060;SDS011;60147;55.036;73.242;2023-02-17T02:45:57;91.50;;;35.60;;
64060;SDS011;60147;55.036;73.242;2023-02-17T02:48:24;81.45;;;30.92;;
64060;SDS011;60147;55.036;73.242;2023-02-17T02:50:58;74.50;;;32.42;;
64060;SDS011;60147;55.036;73.242;2023-02-17T02:58:46;87.10;;;39.25;;
64060;SDS011;60147;55.036;73.242;2023-02-17T03:01:10;67.57;;;33.30;;
64060;SDS011;60147;55.036;73.242;2023-02-17T03:06:27;64.38;;;32.95;;
64060;SDS011;60147;55.036;73.242;2023-02-17T03:08:59;84.13;;;33.75;;
64060;SDS011;60147;55.036;73.242;2023-02-17T03:11:27;83.82;;;36.05;;
64060;SDS011;60147;55.036;73.242;2023-02-17T03:14:16;58.92;;;28.85;;
64060;SDS011;60147;55.036;73.242;2023-02-17T03:16:42;62.58;;;26.60;;
64060;SDS011;60147;55.036;73.242;2023-02-17T03:19:09;85.38;;;32.40;;
64060;SDS011;60147;55.036;73.242;2023-02-17T03:21:46;91.50;;;37.95;;
64060;SDS011;60147;55.036;73.242;2023-02-17T03:24:13;115.13;;;45.20;;
64060;SDS011;60147;55.036;73.242;2023-02-17T03:26:39;147.23;;;54.90;;
64060;SDS011;60147;55.036;73.242;2023-02-17T03:29:06;136.10;;;51.00;;
64060;SDS011;60147;55.036;73.242;2023-02-17T03:31:37;111.80;;;51.05;;
64060;SDS011;60147;55.036;73.242;2023-02-17T03:34:04;119.57;;;49.70;;
64060;SDS011;60147;55.036;73.242;2023-02-17T03:36:30;113.38;;;47.20;;
64060;SDS011;60147;55.036;73.242;2023-02-17T03:38:56;101.20;;;47.13;;
64060;SDS011;60147;55.036;73.242;2023-02-17T03:41:21;134.07;;;48.05;;
64060;SDS011;60147;55.036;73.242;2023-02-17T03:43:47;91.13;;;40.20;;
64060;SDS011;60147;55.036;73.242;2023-02-17T03:46:14;85.97;;;43.17;;
64060;SDS011;60147;55.036;73.242;2023-02-17T03:48:50;104.47;;;44.55;;
64060;SDS011;60147;55.036;73.242;2023-02-17T03:51:18;133.13;;;48.35;;
64060;SDS011;60147;55.036;73.242;2023-02-17T03:53:44;118.60;;;46.90;;
64060;SDS011;60147;55.036;73.242;2023-02-17T03:56:10;89.57;;;43.25;;
64060;SDS011;60147;55.036;73.242;2023-02-17T03:58:37;77.07;;;39.53;;
64060;SDS011;60147;55.036;73.242;2023-02-17T04:01:03;118.15;;;50.50;;
64060;SDS011;60147;55.036;73.242;2023-02-17T04:03:29;108.13;;;44.20;;
64060;SDS011;60147;55.036;73.242;2023-02-17T04:05:55;131.05;;;53.60;;
64060;SDS011;60147;55.036;73.242;2023-02-17T04:08:22;108.50;;;48.20;;
64060;SDS011;60147;55.036;73.242;2023-02-17T04:10:51;109.85;;;49.25;;
64060;SDS011;60147;55.036;73.242;2023-02-17T04:13:17;97.73;;;42.87;;
64060;SDS011;60147;55.036;73.242;2023-02-17T04:15:43;87.97;;;36.72;;
64060;SDS011;60147;55.036;73.242;2023-02-17T04:18:09;87.50;;;38.35;;
64060;SDS011;60147;55.036;73.242;2023-02-17T04:20:35;87.82;;;37.63;;
64060;SDS011;60147;55.036;73.242;2023-02-17T04:23:01;43.33;;;23.38;;
64060;SDS011;60147;55.036;73.242;2023-02-17T04:25:27;80.15;;;31.58;;
64060;SDS011;60147;55.036;73.242;2023-02-17T04:27:53;74.60;;;30.52;;
64060;SDS011;60147;55.036;73.242;2023-02-17T04:30:18;64.25;;;28.10;;
64060;SDS011;60147;55.036;73.242;2023-02-17T04:32:44;84.93;;;30.52;;
64060;SDS011;60147;55.036;73.242;2023-02-17T04:37:46;63.17;;;23.38;;
64060;SDS011;60147;55.036;73.242;2023-02-17T04:40:12;68.45;;;30.95;;
64060;SDS011;60147;55.036;73.242;2023-02-17T04:42:37;60.80;;;28.80;;
64060;SDS011;60147;55.036;73.242;2023-02-17T04:45:04;61.85;;;28.95;;
64060;SDS011;60147;55.036;73.242;2023-02-17T04:47:30;57.17;;;27.15;;
64060;SDS011;60147;55.036;73.242;2023-02-17T04:52:27;53.53;;;26.02;;
64060;SDS011;60147;55.036;73.242;2023-02-17T04:54:57;67.15;;;29.08;;
64060;SDS011;60147;55.036;73.242;2023-02-17T04:57:23;64.07;;;31.17;;
64060;SDS011;60147;55.036;73.242;2023-02-17T04:59:59;56.50;;;24.67;;
64060;SDS011;60147;55.036;73.242;2023-02-17T05:02:36;66.65;;;30.02;;
64060;SDS011;60147;55.036;73.242;2023-02-17T05:05:02;65.05;;;29.73;;
64060;SDS011;60147;55.036;73.242;2023-02-17T05:07:28;53.97;;;25.15;;
64060;SDS011;60147;55.036;73.242;2023-02-17T05:09:53;57.08;;;25.35;;
64060;SDS011;60147;55.036;73.242;2023-02-17T05:12:19;57.75;;;27.27;;
64060;SDS011;60147;55.036;73.242;2023-02-17T05:14:47;52.95;;;23.10;;
64060;SDS011;60147;55.036;73.242;2023-02-17T05:17:15;53.40;;;26.05;;
64060;SDS011;60147;55.036;73.242;2023-02-17T05:19:41;68.65;;;29.60;;
64060;SDS011;60147;55.036;73.242;2023-02-17T05:22:14;56.88;;;26.33;;
64060;SDS011;60147;55.036;73.242;2023-02-17T05:24:40;65.85;;;26.17;;
64060;SDS011;60147;55.036;73.242;2023-02-17T05:27:06;66.40;;;28.48;;
64060;SDS011;60147;55.036;73.242;2023-02-17T05:29:32;51.97;;;23.08;;
64060;SDS011;60147;55.036;73.242;2023-02-17T05:31:58;58.70;;;25.23;;
64060;SDS011;60147;55.036;73.242;2023-02-17T05:34:24;70.03;;;25.55;;
64060;SDS011;60147;55.036;73.242;2023-02-17T05:36:49;49.10;;;22.63;;
64060;SDS011;60147;55.036;73.242;2023-02-17T05:39:15;62.05;;;27.00;;
64060;SDS011;60147;55.036;73.242;2023-02-17T05:41:41;61.22;;;28.75;;
64060;SDS011;60147;55.036;73.242;2023-02-17T05:44:07;71.13;;;30.63;;
64060;SDS011;60147;55.036;73.242;2023-02-17T05:46:33;66.05;;;29.23;;
64060;SDS011;60147;55.036;73.242;2023-02-17T05:48:59;57.78;;;24.63;;
64060;SDS011;60147;55.036;73.242;2023-02-17T05:51:25;71.60;;;29.75;;
64060;SDS011;60147;55.036;73.242;2023-02-17T05:53:51;64.15;;;26.70;;
64060;SDS011;60147;55.036;73.242;2023-02-17T05:56:21;54.55;;;23.35;;
64060;SDS011;60147;55.036;73.242;2023-02-17T05:58:55;62.83;;;28.80;;
64060;SDS011;60147;55.036;73.242;2023-02-17T06:01:31;55.40;;;25.67;;
64060;SDS011;60147;55.036;73.242;2023-02-17T06:03:57;69.20;;;28.17;;
64060;SDS011;60147;55.036;73.242;2023-02-17T06:06:23;50.30;;;25.30;;
64060;SDS011;60147;55.036;73.242;2023-02-17T06:08:59;60.00;;;25.88;;
64060;SDS011;60147;55.036;73.242;2023-02-17T06:11:25;61.70;;;27.73;;
64060;SDS011;60147;55.036;73.242;2023-02-17T06:13:51;57.03;;;25.75;;
64060;SDS011;60147;55.036;73.242;2023-02-17T06:16:17;55.47;;;23.60;;
64060;SDS011;60147;55.036;73.242;2023-02-17T06:18:43;61.22;;;25.35;;
64060;SDS011;60147;55.036;73.242;2023-02-17T06:21:08;57.83;;;25.15;;
64060;SDS011;60147;55.036;73.242;2023-02-17T06:23:34;60.35;;;24.38;;
64060;SDS011;60147;55.036;73.242;2023-02-17T06:26:00;60.20;;;23.25;;
64060;SDS011;60147;55.036;73.242;2023-02-17T06:28:26;52.70;;;20.52;;
64060;SDS011;60147;55.036;73.242;2023-02-17T06:30:52;53.97;;;24.95;;
64060;SDS011;60147;55.036;73.242;2023-02-17T06:33:22;53.42;;;22.58;;
64060;SDS011;60147;55.036;73.242;2023-02-17T06:35:48;64.40;;;25.52;;
64060;SDS011;60147;55.036;73.242;2023-02-17T06:38:24;53.45;;;23.08;;
64060;SDS011;60147;55.036;73.242;2023-02-17T06:43:26;51.42;;;24.20;;
64060;SDS011;60147;55.036;73.242;2023-02-17T06:46:01;59.70;;;24.45;;
64060;SDS011;60147;55.036;73.242;2023-02-17T06:48:27;53.78;;;22.75;;
64060;SDS011;60147;55.036;73.242;2023-02-17T06:51:00;54.10;;;25.48;;
64060;SDS011;60147;55.036;73.242;2023-02-17T06:53:26;55.63;;;24.05;;
64060;SDS011;60147;55.036;73.242;2023-02-17T06:55:58;47.03;;;21.10;;
64060;SDS011;60147;55.036;73.242;2023-02-17T06:58:24;63.85;;;24.00;;
64060;SDS011;60147;55.036;73.242;2023-02-17T07:00:49;50.60;;;22.40;;
64060;SDS011;60147;55.036;73.242;2023-02-17T07:03:16;55.63;;;24.60;;
64060;SDS011;60147;55.036;73.242;2023-02-17T07:05:42;50.33;;;23.33;;
64060;SDS011;60147;55.036;73.242;2023-02-17T07:08:07;53.30;;;20.77;;
64060;SDS011;60147;55.036;73.242;2023-02-17T07:10:33;56.05;;;23.77;;
64060;SDS011;60147;55.036;73.242;2023-02-17T07:12:59;66.38;;;24.05;;
64060;SDS011;60147;55.036;73.242;2023-02-17T07:15:25;51.35;;;19.00;;
64060;SDS011;60147;55.036;73.242;2023-02-17T07:17:56;46.40;;;21.80;;
64060;SDS011;60147;55.036;73.242;2023-02-17T07:20:33;50.97;;;18.25;;
64060;SDS011;60147;55.036;73.242;2023-02-17T07:22:59;53.13;;;21.13;;
64060;SDS011;60147;55.036;73.242;2023-02-17T07:25:25;50.05;;;18.75;;
64060;SDS011;60147;55.036;73.242;2023-02-17T07:27:51;40.47;;;17.85;;
64060;SDS011;60147;55.036;73.242;2023-02-17T07:30:17;35.40;;;17.05;;
64060;SDS011;60147;55.036;73.242;2023-02-17T07:32:48;67.65;;;23.02;;
64060;SDS011;60147;55.036;73.242;2023-02-17T07:35:14;62.55;;;22.83;;
64060;SDS011;60147;55.036;73.242;2023-02-17T07:37:40;45.88;;;20.00;;
64060;SDS011;60147;55.036;73.242;2023-02-17T07:40:09;42.50;;;17.02;;
64060;SDS011;60147;55.036;73.242;2023-02-17T07:42:35;39.03;;;15.13;;
64060;SDS011;60147;55.036;73.242;2023-02-17T07:45:01;40.22;;;17.10;;
64060;SDS011;60147;55.036;73.242;2023-02-17T07:47:28;44.63;;;17.17;;
64060;SDS011;60147;55.036;73.242;2023-02-17T07:49:54;48.97;;;19.95;;
64060;SDS011;60147;55.036;73.242;2023-02-17T07:52:20;36.70;;;16.92;;
64060;SDS011;60147;55.036;73.242;2023-02-17T07:54:56;38.25;;;16.67;;
64060;SDS011;60147;55.036;73.242;2023-02-17T07:57:22;44.15;;;17.67;;
64060;SDS011;60147;55.036;73.242;2023-02-17T07:59:48;38.90;;;17.17;;
64060;SDS011;60147;55.036;73.242;2023-02-17T08:02:14;39.65;;;18.25;;
64060;SDS011;60147;55.036;73.242;2023-02-17T08:04:44;40.60;;;14.95;;
64060;SDS011;60147;55.036;73.242;2023-02-17T08:07:10;39.38;;;16.75;;
64060;SDS011;60147;55.036;73.242;2023-02-17T08:09:36;36.55;;;14.85;;
64060;SDS011;60147;55.036;73.242;2023-02-17T08:12:24;43.28;;;15.45;;
64060;SDS011;60147;55.036;73.242;2023-02-17T08:15:09;42.67;;;16.63;;
64060;SDS011;60147;55.036;73.242;2023-02-17T08:17:35;39.20;;;17.02;;
64060;SDS011;60147;55.036;73.242;2023-02-17T08:20:11;34.47;;;16.30;;
64060;SDS011;60147;55.036;73.242;2023-02-17T08:22:40;44.78;;;15.65;;
64060;SDS011;60147;55.036;73.242;2023-02-17T08:25:05;48.20;;;18.75;;
64060;SDS011;60147;55.036;73.242;2023-02-17T08:27:31;42.28;;;16.63;;
64060;SDS011;60147;55.036;73.242;2023-02-17T08:29:57;50.10;;;17.08;;
64060;SDS011;60147;55.036;73.242;2023-02-17T08:32:23;54.55;;;17.10;;
64060;SDS011;60147;55.036;73.242;2023-02-17T08:34:49;39.00;;;17.38;;
64060;SDS011;60147;55.036;73.242;2023-02-17T08:37:15;33.53;;;15.98;;
64060;SDS011;60147;55.036;73.242;2023-02-17T08:39:51;43.80;;;15.50;;
64060;SDS011;60147;55.036;73.242;2023-02-17T08:42:24;41.10;;;16.27;;
64060;SDS011;60147;55.036;73.242;2023-02-17T08:44:50;41.63;;;17.60;;
64060;SDS011;60147;55.036;73.242;2023-02-17T08:47:18;46.50;;;18.20;;
64060;SDS011;60147;55.036;73.242;2023-02-17T08:49:44;49.08;;;16.98;;
64060;SDS011;60147;55.036;73.242;2023-02-17T08:52:10;61.17;;;19.50;;
64060;SDS011;60147;55.036;73.242;2023-02-17T08:54:36;53.45;;;20.20;;
64060;SDS011;60147;55.036;73.242;2023-02-17T08:57:02;42.72;;;18.30;;
64060;SDS011;60147;55.036;73.242;2023-02-17T08:59:28;38.33;;;18.33;;
64060;SDS011;60147;55.036;73.242;2023-02-17T09:01:54;36.92;;;17.75;;
64060;SDS011;60147;55.036;73.242;2023-02-17T09:04:20;50.42;;;19.08;;
64060;SDS011;60147;55.036;73.242;2023-02-17T09:06:48;47.10;;;18.83;;
64060;SDS011;60147;55.036;73.242;2023-02-17T09:09:15;53.10;;;19.80;;
64060;SDS011;60147;55.036;73.242;2023-02-17T09:11:47;38.88;;;17.45;;
64060;SDS011;60147;55.036;73.242;2023-02-17T09:14:13;40.55;;;16.67;;
64060;SDS011;60147;55.036;73.242;2023-02-17T09:16:39;47.15;;;18.30;;
64060;SDS011;60147;55.036;73.242;2023-02-17T09:19:05;42.35;;;17.45;;
64060;SDS011;60147;55.036;73.242;2023-02-17T09:21:31;38.70;;;17.05;;
64060;SDS011;60147;55.036;73.242;2023-02-17T09:23:57;58.95;;;17.92;;
64060;SDS011;60147;55.036;73.242;2023-02-17T09:26:23;40.42;;;17.17;;
64060;SDS011;60147;55.036;73.242;2023-02-17T09:28:49;43.42;;;17.40;;
64060;SDS011;60147;55.036;73.242;2023-02-17T09:31:19;38.35;;;17.55;;
64060;SDS011;60147;55.036;73.242;2023-02-17T09:33:55;43.58;;;16.10;;
64060;SDS011;60147;55.036;73.242;2023-02-17T09:36:23;44.83;;;15.68;;
64060;SDS011;60147;55.036;73.242;2023-02-17T09:38:49;46.03;;;17.70;;
64060;SDS011;60147;55.036;73.242;2023-02-17T09:43:41;39.53;;;16.85;;
64060;SDS011;60147;55.036;73.242;2023-02-17T09:46:30;39.28;;;16.60;;
64060;SDS011;60147;55.036;73.242;2023-02-17T09:48:55;45.50;;;16.15;;
64060;SDS011;60147;55.036;73.242;2023-02-17T09:51:26;49.38;;;15.57;;
64060;SDS011;60147;55.036;73.242;2023-02-17T09:56:25;41.22;;;16.73;;
64060;SDS011;60147;55.036;73.242;2023-02-17T09:58:57;37.47;;;16.45;;
64060;SDS011;60147;55.036;73.242;2023-02-17T10:01:30;40.10;;;16.05;;
64060;SDS011;60147;55.036;73.242;2023-02-17T10:06:39;40.92;;;16.00;;
64060;SDS011;60147;55.036;73.242;2023-02-17T10:14:34;48.40;;;17.23;;
64060;SDS011;60147;55.036;73.242;2023-02-17T10:17:02;45.67;;;17.48;;
64060;SDS011;60147;55.036;73.242;2023-02-17T10:20:21;53.47;;;18.95;;
64060;SDS011;60147;55.036;73.242;2023-02-17T10:22:37;63.25;;;19.98;;
64060;SDS011;60147;55.036;73.242;2023-02-17T10:25:17;51.47;;;18.75;;
64060;SDS011;60147;55.036;73.242;2023-02-17T10:27:54;54.08;;;20.05;;
64060;SDS011;60147;55.036;73.242;2023-02-17T10:30:48;52.88;;;19.50;;
64060;SDS011;60147;55.036;73.242;2023-02-17T10:39:00;40.63;;;17.75;;
64060;SDS011;60147;55.036;73.242;2023-02-17T10:41:31;47.03;;;17.75;;
64060;SDS011;60147;55.036;73.242;2023-02-17T10:44:05;51.00;;;17.88;;
64060;SDS011;60147;55.036;73.242;2023-02-17T10:46:32;42.97;;;18.00;;
64060;SDS011;60147;55.036;73.242;2023-02-17T10:48:59;41.70;;;18.25;;
64060;SDS011;60147;55.036;73.242;2023-02-17T10:51:27;47.83;;;18.85;;
64060;SDS011;60147;55.036;73.242;2023-02-17T10:53:57;44.38;;;16.85;;
64060;SDS011;60147;55.036;73.242;2023-02-17T10:56:27;44.65;;;18.25;;
64060;SDS011;60147;55.036;73.242;2023-02-17T10:58:58;41.13;;;17.75;;
64060;SDS011;60147;55.036;73.242;2023-02-17T11:01:26;42.60;;;16.40;;
64060;SDS011;60147;55.036;73.242;2023-02-17T11:04:25;42.80;;;17.10;;
64060;SDS011;60147;55.036;73.242;2023-02-17T11:06:54;47.70;;;16.50;;
64060;SDS011;60147;55.036;73.242;2023-02-17T11:09:27;38.28;;;16.45;;
64060;SDS011;60147;55.036;73.242;2023-02-17T11:14:29;42.30;;;16.90;;
64060;SDS011;60147;55.036;73.242;2023-02-17T11:19:36;47.03;;;17.88;;
64060;SDS011;60147;55.036;73.242;2023-02-17T11:22:18;44.63;;;16.83;;
64060;SDS011;60147;55.036;73.242;2023-02-17T11:25:00;40.55;;;16.02;;
64060;SDS011;60147;55.036;73.242;2023-02-17T11:27:34;40.17;;;17.70;;
64060;SDS011;60147;55.036;73.242;2023-02-17T11:30:08;52.03;;;18.83;;
64060;SDS011;60147;55.036;73.242;2023-02-17T11:32:39;54.03;;;18.80;;
64060;SDS011;60147;55.036;73.242;2023-02-17T11:35:16;45.83;;;18.52;;
64060;SDS011;60147;55.036;73.242;2023-02-17T11:38:01;51.97;;;19.83;;
64060;SDS011;60147;55.036;73.242;2023-02-17T11:40:28;48.10;;;16.98;;
64060;SDS011;60147;55.036;73.242;2023-02-17T11:43:01;41.30;;;16.95;;
64060;SDS011;60147;55.036;73.242;2023-02-17T11:56:33;38.55;;;17.75;;
64060;SDS011;60147;55.036;73.242;2023-02-17T12:14:06;58.50;;;19.75;;
64060;SDS011;60147;55.036;73.242;2023-02-17T12:16:50;53.78;;;21.80;;
64060;SDS011;60147;55.036;73.242;2023-02-17T12:19:29;56.47;;;20.52;;
64060;SDS011;60147;55.036;73.242;2023-02-17T12:38:14;48.28;;;20.55;;
64060;SDS011;60147;55.036;73.242;2023-02-17T12:43:41;47.15;;;19.38;;
64060;SDS011;60147;55.036;73.242;2023-02-17T12:45:59;56.17;;;20.27;;
64060;SDS011;60147;55.036;73.242;2023-02-17T12:48:35;45.53;;;19.80;;
64060;SDS011;60147;55.036;73.242;2023-02-17T12:58:51;600.78;;;301.35;;
64060;SDS011;60147;55.036;73.242;2023-02-17T13:01:18;773.35;;;425.42;;
64060;SDS011;60147;55.036;73.242;2023-02-17T13:03:46;1021.92;;;564.95;;
64060;SDS011;60147;55.036;73.242;2023-02-17T13:06:22;935.75;;;509.13;;
64060;SDS011;60147;55.036;73.242;2023-02-17T13:08:55;684.20;;;357.65;;
64060;SDS011;60147;55.036;73.242;2023-02-17T13:11:32;416.15;;;192.48;;
64060;SDS011;60147;55.036;73.242;2023-02-17T13:16:48;301.00;;;118.28;;
64060;SDS011;60147;55.036;73.242;2023-02-17T13:19:14;386.08;;;158.63;;
64060;SDS011;60147;55.036;73.242;2023-02-17T13:21:53;263.38;;;109.82;;
64060;SDS011;60147;55.036;73.242;2023-02-17T13:27:48;302.95;;;124.80;;
64060;SDS011;60147;55.036;73.242;2023-02-17T13:32:43;179.40;;;75.05;;
64060;SDS011;60147;55.036;73.242;2023-02-17T13:37:48;219.57;;;88.47;;
64060;SDS011;60147;55.036;73.242;2023-02-17T13:42:40;160.27;;;64.18;;
64060;SDS011;60147;55.036;73.242;2023-02-17T13:45:23;184.88;;;76.97;;
64060;SDS011;60147;55.036;73.242;2023-02-17T13:48:10;67.72;;;27.13;;
64060;SDS011;60147;55.036;73.242;2023-02-17T13:56:02;146.38;;;59.58;;
64060;SDS011;60147;55.036;73.242;2023-02-17T13:58:34;140.43;;;55.28;;
64060;SDS011;60147;55.036;73.242;2023-02-17T14:01:01;124.03;;;53.25;;
64060;SDS011;60147;55.036;73.242;2023-02-17T14:03:28;126.97;;;49.42;;
64060;SDS011;60147;55.036;73.242;2023-02-17T14:05:55;85.15;;;37.97;;
64060;SDS011;60147;55.036;73.242;2023-02-17T14:10:58;82.25;;;34.17;;
64060;SDS011;60147;55.036;73.242;2023-02-17T14:13:27;72.32;;;30.67;;
64060;SDS011;60147;55.036;73.242;2023-02-17T14:18:28;75.78;;;31.55;;
64060;SDS011;60147;55.036;73.242;2023-02-17T14:21:01;65.45;;;30.67;;
64060;SDS011;60147;55.036;73.242;2023-02-17T14:26:12;53.65;;;23.75;;
64060;SDS011;60147;55.036;73.242;2023-02-17T14:28:52;48.72;;;22.05;;
64060;SDS011;60147;55.036;73.242;2023-02-17T14:31:18;68.63;;;26.27;;
64060;SDS011;60147;55.036;73.242;2023-02-17T14:33:52;59.67;;;26.27;;
64060;SDS011;60147;55.036;73.242;2023-02-17T14:36:24;60.10;;;25.45;;
64060;SDS011;60147;55.036;73.242;2023-02-17T14:38:53;61.20;;;26.52;;
64060;SDS011;60147;55.036;73.242;2023-02-17T14:41:24;46.45;;;18.98;;
64060;SDS011;60147;55.036;73.242;2023-02-17T14:43:50;40.13;;;19.13;;
64060;SDS011;60147;55.036;73.242;2023-02-17T14:46:16;44.55;;;21.13;;
64060;SDS011;60147;55.036;73.242;2023-02-17T14:48:49;38.20;;;16.08;;
64060;SDS011;60147;55.036;73.242;2023-02-17T14:51:17;59.10;;;23.92;;
64060;SDS011;60147;55.036;73.242;2023-02-17T14:53:43;39.10;;;18.02;;
64060;SDS011;60147;55.036;73.242;2023-02-17T14:56:13;42.30;;;17.73;;
64060;SDS011;60147;55.036;73.242;2023-02-17T14:58:40;44.42;;;20.38;;
64060;SDS011;60147;55.036;73.242;2023-02-17T15:01:11;36.63;;;18.42;;
64060;SDS011;60147;55.036;73.242;2023-02-17T15:03:48;42.70;;;19.52;;
64060;SDS011;60147;55.036;73.242;2023-02-17T15:06:29;47.55;;;18.65;;
64060;SDS011;60147;55.036;73.242;2023-02-17T15:08:56;44.08;;;17.42;;
64060;SDS011;60147;55.036;73.242;2023-02-17T15:11:33;33.90;;;12.88;;
64060;SDS011;60147;55.036;73.242;2023-02-17T15:14:10;44.97;;;18.75;;
64060;SDS011;60147;55.036;73.242;2023-02-17T15:16:37;42.80;;;16.45;;
64060;SDS011;60147;55.036;73.242;2023-02-17T15:19:07;38.45;;;15.63;;
64060;SDS011;60147;55.036;73.242;2023-02-17T15:21:33;37.15;;;15.60;;
64060;SDS011;60147;55.036;73.242;2023-02-17T15:24:12;56.47;;;19.23;;
64060;SDS011;60147;55.036;73.242;2023-02-17T15:26:38;47.28;;;18.23;;
64060;SDS011;60147;55.036;73.242;2023-02-17T15:29:04;40.35;;;17.63;;
64060;SDS011;60147;55.036;73.242;2023-02-17T15:31:31;31.88;;;14.77;;
64060;SDS011;60147;55.036;73.242;2023-02-17T15:34:05;40.92;;;15.57;;
64060;SDS011;60147;55.036;73.242;2023-02-17T15:36:43;39.50;;;14.32;;
64060;SDS011;60147;55.036;73.242;2023-02-17T15:39:16;33.70;;;16.52;;
64060;SDS011;60147;55.036;73.242;2023-02-17T15:41:42;47.13;;;16.33;;
64060;SDS011;60147;55.036;73.242;2023-02-17T15:44:19;36.35;;;16.35;;
64060;SDS011;60147;55.036;73.242;2023-02-17T15:46:47;39.67;;;17.08;;
64060;SDS011;60147;55.036;73.242;2023-02-17T15:49:15;44.97;;;17.52;;
64060;SDS011;60147;55.036;73.242;2023-02-17T15:51:51;35.42;;;17.50;;
64060;SDS011;60147;55.036;73.242;2023-02-17T15:54:17;37.60;;;14.70;;
64060;SDS011;60147;55.036;73.242;2023-02-17T15:56:50;42.88;;;16.17;;
64060;SDS011;60147;55.036;73.242;2023-02-17T15:59:21;34.42;;;15.98;;
64060;SDS011;60147;55.036;73.242;2023-02-17T16:01:57;33.33;;;15.75;;
64060;SDS011;60147;55.036;73.242;2023-02-17T16:04:25;26.23;;;13.18;;
64060;SDS011;60147;55.036;73.242;2023-02-17T16:06:51;37.22;;;13.52;;
64060;SDS011;60147;55.036;73.242;2023-02-17T16:09:20;32.72;;;14.32;;
64060;SDS011;60147;55.036;73.242;2023-02-17T16:11:47;34.88;;;15.68;;
64060;SDS011;60147;55.036;73.242;2023-02-17T16:14:20;33.35;;;15.23;;
64060;SDS011;60147;55.036;73.242;2023-02-17T16:16:47;40.45;;;16.42;;
64060;SDS011;60147;55.036;73.242;2023-02-17T16:19:13;36.28;;;15.18;;
64060;SDS011;60147;55.036;73.242;2023-02-17T16:21:44;40.92;;;14.43;;
64060;SDS011;60147;55.036;73.242;2023-02-17T16:24:10;25.85;;;14.00;;
64060;SDS011;60147;55.036;73.242;2023-02-17T16:26:36;45.40;;;16.70;;
64060;SDS011;60147;55.036;73.242;2023-02-17T16:29:11;33.83;;;13.85;;